sensor_id;sensor_type;location;lat;lon;timestamp;pressure;altitude;pressure_sealevel;temperature;humidity
48796;BME280;34607;48.520;-1.330;2022-08-21T00:00:49;100370.91;;;17.53;88.52
48796;BME280;34607;48.520;-1.330;2022-08-21T00:03:16;100378.69;;;17.58;88.52
48796;BME280;34607;48.520;-1.330;2022-08-21T00:05:46;100370.88;;;17.56;88.41
48796;BME280;34607;48.520;-1.330;2022-08-21T00:08:16;100368.25;;;17.55;88.46
48796;BME280;34607;48.520;-1.330;2022-08-21T00:10:44;100358.78;;;17.45;88.57
48796;BME280;34607;48.520;-1.330;2022-08-21T00:13:12;100318.97;;;17.16;88.82
48796;BME280;34607;48.520;-1.330;2022-08-21T00:15:39;100363.09;;;17.49;89.18
48796;BME280;34607;48.520;-1.330;2022-08-21T00:18:10;100368.44;;;17.41;89.26
48796;BME280;34607;48.520;-1.330;2022-08-21T00:20:39;100363.25;;;17.36;89.40
48796;BME280;34607;48.520;-1.330;2022-08-21T00:23:06;100328.53;;;17.19;89.69
48796;BME280;34607;48.520;-1.330;2022-08-21T00:25:35;100362.28;;;17.42;89.66
48796;BME280;34607;48.520;-1.330;2022-08-21T00:28:02;100367.53;;;17.42;89.93
48796;BME280;34607;48.520;-1.330;2022-08-21T00:30:30;100363.16;;;17.42;89.93
48796;BME280;34607;48.520;-1.330;2022-08-21T00:32:57;100363.22;;;17.39;90.12
48796;BME280;34607;48.520;-1.330;2022-08-21T00:35:28;100370.16;;;17.40;90.08
48796;BME280;34607;48.520;-1.330;2022-08-21T00:37:56;100350.22;;;17.27;90.28
48796;BME280;34607;48.520;-1.330;2022-08-21T00:40:27;100364.09;;;17.37;90.20
48796;BME280;34607;48.520;-1.330;2022-08-21T00:42:55;100349.34;;;17.30;90.08
48796;BME280;34607;48.520;-1.330;2022-08-21T00:45:23;100356.28;;;17.34;90.08
48796;BME280;34607;48.520;-1.330;2022-08-21T00:47:51;100359.00;;;17.26;90.49
48796;BME280;34607;48.520;-1.330;2022-08-21T00:50:21;100367.72;;;17.25;90.52
48796;BME280;34607;48.520;-1.330;2022-08-21T00:52:49;100364.28;;;17.20;90.53
48796;BME280;34607;48.520;-1.330;2022-08-21T00:55:18;100329.63;;;16.96;90.58
48796;BME280;34607;48.520;-1.330;2022-08-21T00:57:50;100340.91;;;17.01;91.01
48796;BME280;34607;48.520;-1.330;2022-08-21T01:00:22;100342.63;;;17.06;91.21
48796;BME280;34607;48.520;-1.330;2022-08-21T01:02:50;100327.91;;;16.95;91.19
48796;BME280;34607;48.520;-1.330;2022-08-21T01:05:17;100350.50;;;17.04;91.32
48796;BME280;34607;48.520;-1.330;2022-08-21T01:07:44;100352.19;;;17.07;91.23
48796;BME280;34607;48.520;-1.330;2022-08-21T01:10:12;100348.75;;;17.04;91.06
48796;BME280;34607;48.520;-1.330;2022-08-21T01:12:40;100356.56;;;17.08;91.38
48796;BME280;34607;48.520;-1.330;2022-08-21T01:15:08;100353.97;;;17.06;91.59
48796;BME280;34607;48.520;-1.330;2022-08-21T01:17:37;100336.59;;;17.00;92.10
48796;BME280;34607;48.520;-1.330;2022-08-21T01:20:08;100336.56;;;17.03;91.90
48796;BME280;34607;48.520;-1.330;2022-08-21T01:22:38;100338.28;;;17.04;92.06
48796;BME280;34607;48.520;-1.330;2022-08-21T01:25:06;100345.25;;;17.06;92.26
48796;BME280;34607;48.520;-1.330;2022-08-21T01:27:34;100340.91;;;17.03;92.29
48796;BME280;34607;48.520;-1.330;2022-08-21T01:30:07;100334.78;;;17.06;92.33
48796;BME280;34607;48.520;-1.330;2022-08-21T01:32:36;100338.25;;;17.08;92.28
48796;BME280;34607;48.520;-1.330;2022-08-21T01:35:05;100333.06;;;17.01;92.23
48796;BME280;34607;48.520;-1.330;2022-08-21T01:37:33;100345.28;;;17.04;92.45
48796;BME280;34607;48.520;-1.330;2022-08-21T01:40:03;100333.97;;;17.00;92.61
48796;BME280;34607;48.520;-1.330;2022-08-21T01:42:30;100339.19;;;17.02;92.76
48796;BME280;34607;48.520;-1.330;2022-08-21T01:44:58;100343.53;;;17.03;92.85
48796;BME280;34607;48.520;-1.330;2022-08-21T01:47:25;100317.56;;;16.84;92.79
48796;BME280;34607;48.520;-1.330;2022-08-21T01:49:52;100349.69;;;16.99;93.02
48796;BME280;34607;48.520;-1.330;2022-08-21T01:52:19;100342.72;;;16.96;93.20
48796;BME280;34607;48.520;-1.330;2022-08-21T01:54:47;100338.38;;;16.95;93.24
48796;BME280;34607;48.520;-1.330;2022-08-21T01:57:15;100351.44;;;16.98;93.33
48796;BME280;34607;48.520;-1.330;2022-08-21T01:59:43;100349.72;;;16.94;93.45
48796;BME280;34607;48.520;-1.330;2022-08-21T02:02:10;100353.25;;;16.92;93.60
48796;BME280;34607;48.520;-1.330;2022-08-21T02:04:37;100345.38;;;16.93;93.82
48796;BME280;34607;48.520;-1.330;2022-08-21T02:07:04;100331.47;;;16.90;93.61
48796;BME280;34607;48.520;-1.330;2022-08-21T02:09:31;100338.38;;;16.95;93.53
48796;BME280;34607;48.520;-1.330;2022-08-21T02:11:59;100348.00;;;16.92;93.54
48796;BME280;34607;48.520;-1.330;2022-08-21T02:14:27;100341.94;;;16.88;93.48
48796;BME280;34607;48.520;-1.330;2022-08-21T02:16:55;100352.41;;;16.87;93.67
48796;BME280;34607;48.520;-1.330;2022-08-21T02:19:22;100355.06;;;16.79;93.82
48796;BME280;34607;48.520;-1.330;2022-08-21T02:21:49;100355.97;;;16.75;93.87
48796;BME280;34607;48.520;-1.330;2022-08-21T02:24:16;100329.94;;;16.64;93.96
48796;BME280;34607;48.520;-1.330;2022-08-21T02:26:43;100336.13;;;16.52;93.96
48796;BME280;34607;48.520;-1.330;2022-08-21T02:29:10;100344.81;;;16.54;94.01
48796;BME280;34607;48.520;-1.330;2022-08-21T02:31:38;100356.97;;;16.61;94.00
48796;BME280;34607;48.520;-1.330;2022-08-21T02:34:05;100359.63;;;16.55;94.23
48796;BME280;34607;48.520;-1.330;2022-08-21T02:36:32;100343.09;;;16.50;94.36
48796;BME280;34607;48.520;-1.330;2022-08-21T02:39:00;100351.81;;;16.52;94.29
48796;BME280;34607;48.520;-1.330;2022-08-21T02:41:27;100348.31;;;16.50;94.34
48796;BME280;34607;48.520;-1.330;2022-08-21T02:43:54;100354.47;;;16.44;94.52
48796;BME280;34607;48.520;-1.330;2022-08-21T02:46:21;100351.91;;;16.40;94.74
48796;BME280;34607;48.520;-1.330;2022-08-21T02:48:49;100348.41;;;16.41;95.16
48796;BME280;34607;48.520;-1.330;2022-08-21T02:51:19;100341.50;;;16.37;95.10
48796;BME280;34607;48.520;-1.330;2022-08-21T02:53:48;100338.91;;;16.31;95.53
48796;BME280;34607;48.520;-1.330;2022-08-21T02:56:18;100361.47;;;16.45;95.54
48796;BME280;34607;48.520;-1.330;2022-08-21T02:58:47;100347.53;;;16.42;95.42
48796;BME280;34607;48.520;-1.330;2022-08-21T03:01:15;100351.00;;;16.44;95.74
48796;BME280;34607;48.520;-1.330;2022-08-21T03:03:44;100348.41;;;16.44;95.91
48796;BME280;34607;48.520;-1.330;2022-08-21T03:06:15;100345.69;;;16.53;96.08
48796;BME280;34607;48.520;-1.330;2022-08-21T03:08:42;100336.13;;;16.52;95.85
48796;BME280;34607;48.520;-1.330;2022-08-21T03:11:11;100331.88;;;16.40;96.30
48796;BME280;34607;48.520;-1.330;2022-08-21T03:13:38;100334.47;;;16.42;96.51
48796;BME280;34607;48.520;-1.330;2022-08-21T03:16:06;100336.25;;;16.38;96.50
48796;BME280;34607;48.520;-1.330;2022-08-21T03:18:34;100328.47;;;16.31;96.44
48796;BME280;34607;48.520;-1.330;2022-08-21T03:21:01;100337.13;;;16.34;96.68
48796;BME280;34607;48.520;-1.330;2022-08-21T03:23:31;100321.56;;;16.22;96.82
48796;BME280;34607;48.520;-1.330;2022-08-21T03:25:59;100330.25;;;16.24;96.96
48796;BME280;34607;48.520;-1.330;2022-08-21T03:28:26;100323.31;;;16.20;97.20
48796;BME280;34607;48.520;-1.330;2022-08-21T03:30:53;100319.81;;;16.19;97.60
48796;BME280;34607;48.520;-1.330;2022-08-21T03:33:20;100328.56;;;16.17;97.95
48796;BME280;34607;48.520;-1.330;2022-08-21T03:35:54;100306.88;;;16.04;97.64
48796;BME280;34607;48.520;-1.330;2022-08-21T03:38:23;100329.44;;;16.14;98.17
48796;BME280;34607;48.520;-1.330;2022-08-21T03:40:52;100325.94;;;16.15;98.34
48796;BME280;34607;48.520;-1.330;2022-08-21T03:43:19;100332.03;;;16.14;98.34
48796;BME280;34607;48.520;-1.330;2022-08-21T03:45:46;100326.78;;;16.19;98.38
48796;BME280;34607;48.520;-1.330;2022-08-21T03:48:13;100321.56;;;16.19;98.19
48796;BME280;34607;48.520;-1.330;2022-08-21T03:50:42;100328.53;;;16.21;98.26
48796;BME280;34607;48.520;-1.330;2022-08-21T03:53:11;100318.94;;;16.20;98.23
48796;BME280;34607;48.520;-1.330;2022-08-21T03:55:38;100303.31;;;16.14;98.50
48796;BME280;34607;48.520;-1.330;2022-08-21T03:58:07;100307.66;;;16.15;98.57
48796;BME280;34607;48.520;-1.330;2022-08-21T04:00:34;100317.19;;;16.21;98.54
48796;BME280;34607;48.520;-1.330;2022-08-21T04:03:03;100325.84;;;16.29;98.53
48796;BME280;34607;48.520;-1.330;2022-08-21T04:05:30;100327.59;;;16.32;98.63
48796;BME280;34607;48.520;-1.330;2022-08-21T04:08:00;100324.09;;;16.31;98.76
48796;BME280;34607;48.520;-1.330;2022-08-21T04:10:29;100320.63;;;16.27;98.95
48796;BME280;34607;48.520;-1.330;2022-08-21T04:12:56;100326.75;;;16.25;99.13
48796;BME280;34607;48.520;-1.330;2022-08-21T04:15:26;100315.47;;;16.23;99.44
48796;BME280;34607;48.520;-1.330;2022-08-21T04:17:53;100322.38;;;16.28;99.38
48796;BME280;34607;48.520;-1.330;2022-08-21T04:20:22;100319.78;;;16.28;99.50
48796;BME280;34607;48.520;-1.330;2022-08-21T04:22:49;100319.78;;;16.27;99.50
48796;BME280;34607;48.520;-1.330;2022-08-21T04:25:19;100308.50;;;16.20;99.69
48796;BME280;34607;48.520;-1.330;2022-08-21T04:27:46;100318.09;;;16.20;100.00
48796;BME280;34607;48.520;-1.330;2022-08-21T04:30:14;100315.50;;;16.18;100.00
48796;BME280;34607;48.520;-1.330;2022-08-21T04:32:44;100283.44;;;15.96;100.00
48796;BME280;34607;48.520;-1.330;2022-08-21T04:35:13;100305.97;;;16.11;100.00
48796;BME280;34607;48.520;-1.330;2022-08-21T04:37:41;100321.56;;;16.19;100.00
48796;BME280;34607;48.520;-1.330;2022-08-21T04:40:10;100327.69;;;16.18;100.00
48796;BME280;34607;48.520;-1.330;2022-08-21T04:42:42;100308.59;;;16.05;100.00
48796;BME280;34607;48.520;-1.330;2022-08-21T04:45:17;100338.16;;;16.13;99.98
48796;BME280;34607;48.520;-1.330;2022-08-21T04:47:48;100347.72;;;16.14;100.00
48796;BME280;34607;48.520;-1.330;2022-08-21T04:50:16;100335.56;;;16.08;100.00
48796;BME280;34607;48.520;-1.330;2022-08-21T04:53:02;100326.91;;;16.00;100.00
48796;BME280;34607;48.520;-1.330;2022-08-21T04:55:30;100339.94;;;16.11;100.00
48796;BME280;34607;48.520;-1.330;2022-08-21T04:57:58;100340.78;;;16.12;100.00
48796;BME280;34607;48.520;-1.330;2022-08-21T05:00:26;100341.66;;;16.10;100.00
48796;BME280;34607;48.520;-1.330;2022-08-21T05:02:56;100342.53;;;16.11;100.00
48796;BME280;34607;48.520;-1.330;2022-08-21T05:05:24;100343.38;;;16.18;100.00
48796;BME280;34607;48.520;-1.330;2022-08-21T05:07:52;100325.03;;;16.19;100.00
48796;BME280;34607;48.520;-1.330;2022-08-21T05:10:20;100338.09;;;16.22;100.00
48796;BME280;34607;48.520;-1.330;2022-08-21T05:12:48;100331.09;;;16.27;100.00
48796;BME280;34607;48.520;-1.330;2022-08-21T05:15:16;100336.28;;;16.31;100.00
48796;BME280;34607;48.520;-1.330;2022-08-21T05:17:43;100319.78;;;16.25;100.00
48796;BME280;34607;48.520;-1.330;2022-08-21T05:20:13;100328.44;;;16.34;100.00
48796;BME280;34607;48.520;-1.330;2022-08-21T05:22:40;100331.91;;;16.37;100.00
48796;BME280;34607;48.520;-1.330;2022-08-21T05:25:08;100338.88;;;16.38;100.00
48796;BME280;34607;48.520;-1.330;2022-08-21T05:27:36;100320.59;;;16.34;100.00
48796;BME280;34607;48.520;-1.330;2022-08-21T05:30:04;100329.28;;;16.36;100.00
48796;BME280;34607;48.520;-1.330;2022-08-21T05:32:31;100323.19;;;16.38;100.00
48796;BME280;34607;48.520;-1.330;2022-08-21T05:34:59;100326.66;;;16.39;100.00
48796;BME280;34607;48.520;-1.330;2022-08-21T05:37:27;100330.13;;;16.41;100.00
48796;BME280;34607;48.520;-1.330;2022-08-21T05:39:54;100342.25;;;16.46;100.00
48796;BME280;34607;48.520;-1.330;2022-08-21T05:42:21;100342.31;;;16.43;100.00
48796;BME280;34607;48.520;-1.330;2022-08-21T05:44:48;100337.94;;;16.44;100.00
48796;BME280;34607;48.520;-1.330;2022-08-21T05:47:16;100336.22;;;16.40;100.00
48796;BME280;34607;48.520;-1.330;2022-08-21T05:49:43;100327.59;;;16.32;100.00
48796;BME280;34607;48.520;-1.330;2022-08-21T05:52:10;100331.88;;;16.39;100.00
48796;BME280;34607;48.520;-1.330;2022-08-21T05:54:52;100345.78;;;16.42;100.00
48796;BME280;34607;48.520;-1.330;2022-08-21T05:57:20;100313.72;;;16.23;100.00
48796;BME280;34607;48.520;-1.330;2022-08-21T05:59:49;100338.81;;;16.40;100.00
48796;BME280;34607;48.520;-1.330;2022-08-21T06:02:17;100358.72;;;16.59;100.00
48796;BME280;34607;48.520;-1.330;2022-08-21T06:04:45;100310.13;;;16.38;100.00
48796;BME280;34607;48.520;-1.330;2022-08-21T06:07:12;100348.28;;;16.58;100.00
48796;BME280;34607;48.520;-1.330;2022-08-21T06:09:39;100350.06;;;16.51;100.00
48796;BME280;34607;48.520;-1.330;2022-08-21T06:12:10;100350.03;;;16.59;100.00
48796;BME280;34607;48.520;-1.330;2022-08-21T06:14:40;100351.72;;;16.61;100.00
48796;BME280;34607;48.520;-1.330;2022-08-21T06:17:09;100349.09;;;16.63;100.00
48796;BME280;34607;48.520;-1.330;2022-08-21T06:19:37;100339.59;;;16.57;100.00
48796;BME280;34607;48.520;-1.330;2022-08-21T06:22:05;100353.50;;;16.58;100.00
48796;BME280;34607;48.520;-1.330;2022-08-21T06:24:32;100337.09;;;16.40;100.00
48796;BME280;34607;48.520;-1.330;2022-08-21T06:27:04;100350.91;;;16.55;100.00
48796;BME280;34607;48.520;-1.330;2022-08-21T06:29:32;100358.72;;;16.62;100.00
48796;BME280;34607;48.520;-1.330;2022-08-21T06:32:00;100349.91;;;16.73;100.00
48796;BME280;34607;48.520;-1.330;2022-08-21T06:34:27;100353.31;;;16.84;100.00
48796;BME280;34607;48.520;-1.330;2022-08-21T06:36:54;100344.56;;;16.88;100.00
48796;BME280;34607;48.520;-1.330;2022-08-21T06:39:21;100348.75;;;17.01;100.00
48796;BME280;34607;48.520;-1.330;2022-08-21T06:41:48;100347.78;;;17.12;100.00
48796;BME280;34607;48.520;-1.330;2022-08-21T06:44:16;100351.13;;;17.28;100.00
48796;BME280;34607;48.520;-1.330;2022-08-21T06:46:45;100348.38;;;17.38;100.00
48796;BME280;34607;48.520;-1.330;2022-08-21T06:49:12;100344.72;;;17.53;99.97
48796;BME280;34607;48.520;-1.330;2022-08-21T06:51:39;100341.94;;;17.66;99.66
48796;BME280;34607;48.520;-1.330;2022-08-21T06:54:06;100350.59;;;17.71;99.08
48796;BME280;34607;48.520;-1.330;2022-08-21T06:56:34;100347.16;;;17.66;99.03
48796;BME280;34607;48.520;-1.330;2022-08-21T06:59:03;100357.44;;;17.83;98.69
48796;BME280;34607;48.520;-1.330;2022-08-21T07:01:31;100348.66;;;17.84;98.62
48796;BME280;34607;48.520;-1.330;2022-08-21T07:03:59;100352.16;;;17.86;98.19
48796;BME280;34607;48.520;-1.330;2022-08-21T07:06:27;100353.97;;;17.81;98.04
48796;BME280;34607;48.520;-1.330;2022-08-21T07:08:54;100341.06;;;17.67;97.61
48796;BME280;34607;48.520;-1.330;2022-08-21T07:11:22;100327.25;;;17.54;97.66
48796;BME280;34607;48.520;-1.330;2022-08-21T07:13:51;100353.22;;;17.71;97.61
48796;BME280;34607;48.520;-1.330;2022-08-21T07:16:19;100346.19;;;17.73;97.63
48796;BME280;34607;48.520;-1.330;2022-08-21T07:18:46;100342.63;;;17.78;97.89
48796;BME280;34607;48.520;-1.330;2022-08-21T07:21:16;100341.63;;;17.89;97.97
48796;BME280;34607;48.520;-1.330;2022-08-21T07:23:45;100330.22;;;17.94;98.12
48796;BME280;34607;48.520;-1.330;2022-08-21T07:26:13;100327.63;;;17.93;98.07
48796;BME280;34607;48.520;-1.330;2022-08-21T07:28:41;100304.13;;;17.87;97.93
48796;BME280;34607;48.520;-1.330;2022-08-21T07:31:09;100342.41;;;17.97;97.94
48796;BME280;34607;48.520;-1.330;2022-08-21T07:33:40;100337.97;;;18.02;97.87
48796;BME280;34607;48.520;-1.330;2022-08-21T07:36:08;100334.41;;;18.08;97.29
48796;BME280;34607;48.520;-1.330;2022-08-21T07:38:36;100317.91;;;18.03;97.36
48796;BME280;34607;48.520;-1.330;2022-08-21T07:41:10;100318.91;;;17.92;98.02
48796;BME280;34607;48.520;-1.330;2022-08-21T07:43:39;100323.38;;;17.83;98.13
48796;BME280;34607;48.520;-1.330;2022-08-21T07:46:06;100318.13;;;17.84;98.81
48796;BME280;34607;48.520;-1.330;2022-08-21T07:48:33;100313.56;;;17.99;98.57
48796;BME280;34607;48.520;-1.330;2022-08-21T07:51:05;100322.38;;;17.94;98.59
48796;BME280;34607;48.520;-1.330;2022-08-21T07:53:33;100318.09;;;17.86;98.60
48796;BME280;34607;48.520;-1.330;2022-08-21T07:56:02;100334.50;;;18.00;98.59
48796;BME280;34607;48.520;-1.330;2022-08-21T07:58:30;100329.16;;;18.08;98.68
48796;BME280;34607;48.520;-1.330;2022-08-21T08:00:57;100315.91;;;18.17;98.63
48796;BME280;34607;48.520;-1.330;2022-08-21T08:03:24;100323.69;;;18.23;98.54
48796;BME280;34607;48.520;-1.330;2022-08-21T08:05:51;100326.19;;;18.29;98.44
48796;BME280;34607;48.520;-1.330;2022-08-21T08:08:18;100326.94;;;18.38;98.03
48796;BME280;34607;48.520;-1.330;2022-08-21T08:10:46;100318.91;;;18.47;97.73
48796;BME280;34607;48.520;-1.330;2022-08-21T08:13:16;100323.84;;;18.65;97.23
48796;BME280;34607;48.520;-1.330;2022-08-21T08:15:43;100330.66;;;18.77;96.50
48796;BME280;34607;48.520;-1.330;2022-08-21T08:18:10;100330.44;;;18.89;95.87
48796;BME280;34607;48.520;-1.330;2022-08-21T08:20:38;100318.78;;;19.06;94.96
48796;BME280;34607;48.520;-1.330;2022-08-21T08:23:06;100314.97;;;19.21;94.39
48796;BME280;34607;48.520;-1.330;2022-08-21T08:25:33;100307.69;;;19.37;93.94
48796;BME280;34607;48.520;-1.330;2022-08-21T08:28:00;100294.50;;;19.40;92.63
48796;BME280;34607;48.520;-1.330;2022-08-21T08:30:28;100283.13;;;19.38;92.25
48796;BME280;34607;48.520;-1.330;2022-08-21T08:32:56;100305.75;;;19.45;92.68
48796;BME280;34607;48.520;-1.330;2022-08-21T08:35:23;100309.06;;;19.53;92.71
48796;BME280;34607;48.520;-1.330;2022-08-21T08:37:51;100307.22;;;19.58;92.28
48796;BME280;34607;48.520;-1.330;2022-08-21T08:40:21;100316.03;;;19.56;92.37
48796;BME280;34607;48.520;-1.330;2022-08-21T08:42:50;100300.94;;;19.65;92.53
48796;BME280;34607;48.520;-1.330;2022-08-21T08:45:19;100308.44;;;19.84;91.42
48796;BME280;34607;48.520;-1.330;2022-08-21T08:47:53;100307.22;;;19.99;90.18
48796;BME280;34607;48.520;-1.330;2022-08-21T08:50:27;100313.22;;;20.04;89.32
48796;BME280;34607;48.520;-1.330;2022-08-21T08:52:59;100308.00;;;20.02;89.20
48796;BME280;34607;48.520;-1.330;2022-08-21T08:55:32;100307.56;;;20.21;88.93
48796;BME280;34607;48.520;-1.330;2022-08-21T08:58:01;100306.94;;;20.11;87.79
48796;BME280;34607;48.520;-1.330;2022-08-21T09:00:29;100293.97;;;20.04;87.95
48796;BME280;34607;48.520;-1.330;2022-08-21T09:03:01;100320.03;;;20.13;86.28
48796;BME280;34607;48.520;-1.330;2022-08-21T09:05:45;100322.88;;;20.05;86.70
48796;BME280;34607;48.520;-1.330;2022-08-21T09:08:34;100304.50;;;20.04;87.47
48796;BME280;34607;48.520;-1.330;2022-08-21T09:11:10;100311.56;;;20.01;87.90
48796;BME280;34607;48.520;-1.330;2022-08-21T09:13:47;100301.84;;;20.05;87.96
48796;BME280;34607;48.520;-1.330;2022-08-21T09:16:20;100284.28;;;20.06;87.34
48796;BME280;34607;48.520;-1.330;2022-08-21T09:18:54;100297.44;;;20.06;86.44
48796;BME280;34607;48.520;-1.330;2022-08-21T09:21:28;100297.94;;;20.20;86.46
48796;BME280;34607;48.520;-1.330;2022-08-21T09:24:01;100290.94;;;20.20;86.41
48796;BME280;34607;48.520;-1.330;2022-08-21T09:26:38;100279.72;;;20.14;86.83
48796;BME280;34607;48.520;-1.330;2022-08-21T09:29:10;100305.69;;;20.26;86.94
48796;BME280;34607;48.520;-1.330;2022-08-21T09:31:38;100325.50;;;20.41;87.14
48796;BME280;34607;48.520;-1.330;2022-08-21T09:34:08;100312.91;;;20.54;86.68
48796;BME280;34607;48.520;-1.330;2022-08-21T09:36:39;100311.78;;;20.64;85.91
48796;BME280;34607;48.520;-1.330;2022-08-21T09:39:09;100324.06;;;20.98;85.99
48796;BME280;34607;48.520;-1.330;2022-08-21T09:41:37;100319.22;;;21.45;84.18
48796;BME280;34607;48.520;-1.330;2022-08-21T09:44:07;100325.59;;;21.69;82.02
48796;BME280;34607;48.520;-1.330;2022-08-21T09:46:34;100318.97;;;21.84;81.16
48796;BME280;34607;48.520;-1.330;2022-08-21T09:49:03;100319.41;;;21.99;80.95
48796;BME280;34607;48.520;-1.330;2022-08-21T09:51:35;100308.94;;;21.96;79.90
48796;BME280;34607;48.520;-1.330;2022-08-21T09:54:14;100318.69;;;21.94;79.94
48796;BME280;34607;48.520;-1.330;2022-08-21T09:56:54;100304.13;;;21.82;79.71
48796;BME280;34607;48.520;-1.330;2022-08-21T09:59:40;100303.81;;;21.63;80.81
48796;BME280;34607;48.520;-1.330;2022-08-21T10:02:26;100297.47;;;21.39;80.30
48796;BME280;34607;48.520;-1.330;2022-08-21T10:04:55;100287.50;;;21.19;80.75
48796;BME280;34607;48.520;-1.330;2022-08-21T10:07:27;100315.94;;;21.06;81.40
48796;BME280;34607;48.520;-1.330;2022-08-21T10:10:04;100320.94;;;21.17;81.27
48796;BME280;34607;48.520;-1.330;2022-08-21T10:12:41;100329.38;;;21.28;80.87
48796;BME280;34607;48.520;-1.330;2022-08-21T10:15:18;100315.03;;;21.38;80.96
48796;BME280;34607;48.520;-1.330;2022-08-21T10:17:53;100302.84;;;21.65;80.85
48796;BME280;34607;48.520;-1.330;2022-08-21T10:20:24;100323.28;;;22.43;77.98
48796;BME280;34607;48.520;-1.330;2022-08-21T10:23:03;100325.59;;;22.53;77.01
48796;BME280;34607;48.520;-1.330;2022-08-21T10:25:40;100326.09;;;22.64;77.54
48796;BME280;34607;48.520;-1.330;2022-08-21T10:28:13;100318.25;;;22.62;76.78
48796;BME280;34607;48.520;-1.330;2022-08-21T10:30:50;100323.38;;;22.40;77.83
48796;BME280;34607;48.520;-1.330;2022-08-21T10:33:32;100319.31;;;22.30;77.09
48796;BME280;34607;48.520;-1.330;2022-08-21T10:36:12;100313.34;;;22.23;76.35
48796;BME280;34607;48.520;-1.330;2022-08-21T10:39:02;100314.69;;;22.37;75.88
48796;BME280;34607;48.520;-1.330;2022-08-21T10:41:47;100329.59;;;22.38;76.87
48796;BME280;34607;48.520;-1.330;2022-08-21T10:44:25;100331.28;;;22.40;76.98
48796;BME280;34607;48.520;-1.330;2022-08-21T10:47:01;100336.38;;;22.47;76.59
48796;BME280;34607;48.520;-1.330;2022-08-21T10:49:35;100334.78;;;22.41;75.93
48796;BME280;34607;48.520;-1.330;2022-08-21T10:52:29;100332.69;;;22.22;76.91
48796;BME280;34607;48.520;-1.330;2022-08-21T10:55:04;100337.56;;;22.08;76.66
48796;BME280;34607;48.520;-1.330;2022-08-21T10:57:38;100324.63;;;22.00;75.99
48796;BME280;34607;48.520;-1.330;2022-08-21T11:00:09;100336.00;;;22.02;76.29
48796;BME280;34607;48.520;-1.330;2022-08-21T11:02:41;100329.34;;;22.17;76.96
48796;BME280;34607;48.520;-1.330;2022-08-21T11:05:13;100327.28;;;22.27;76.25
48796;BME280;34607;48.520;-1.330;2022-08-21T11:07:46;100342.56;;;22.46;76.21
48796;BME280;34607;48.520;-1.330;2022-08-21T11:10:21;100329.31;;;22.47;76.59
48796;BME280;34607;48.520;-1.330;2022-08-21T11:12:52;100343.06;;;22.57;76.88
48796;BME280;34607;48.520;-1.330;2022-08-21T11:15:29;100336.16;;;22.53;76.07
48796;BME280;34607;48.520;-1.330;2022-08-21T11:18:07;100335.94;;;22.32;76.87
48796;BME280;34607;48.520;-1.330;2022-08-21T11:20:42;100327.50;;;22.21;76.86
48796;BME280;34607;48.520;-1.330;2022-08-21T11:23:15;100330.47;;;22.10;76.86
48796;BME280;34607;48.520;-1.330;2022-08-21T11:25:49;100333.53;;;21.96;77.86
48796;BME280;34607;48.520;-1.330;2022-08-21T11:28:22;100321.81;;;21.78;78.16
48796;BME280;34607;48.520;-1.330;2022-08-21T11:30:59;100340.34;;;21.75;78.21
48796;BME280;34607;48.520;-1.330;2022-08-21T11:33:40;100338.03;;;21.64;80.09
48796;BME280;34607;48.520;-1.330;2022-08-21T11:36:16;100333.81;;;21.57;81.18
48796;BME280;34607;48.520;-1.330;2022-08-21T11:38:51;100342.41;;;21.64;81.84
48796;BME280;34607;48.520;-1.330;2022-08-21T11:41:28;100342.94;;;21.77;82.02
48796;BME280;34607;48.520;-1.330;2022-08-21T11:46:33;100299.69;;;21.82;84.04
48796;BME280;34607;48.520;-1.330;2022-08-21T11:49:21;100314.09;;;22.00;83.84
48796;BME280;34607;48.520;-1.330;2022-08-21T11:51:55;100320.50;;;21.92;81.75
48796;BME280;34607;48.520;-1.330;2022-08-21T11:54:29;100314.78;;;21.77;82.71
48796;BME280;34607;48.520;-1.330;2022-08-21T11:57:03;100315.22;;;21.92;82.79
48796;BME280;34607;48.520;-1.330;2022-08-21T11:59:39;100320.22;;;22.01;81.78
48796;BME280;34607;48.520;-1.330;2022-08-21T12:02:12;100312.16;;;22.05;82.48
48796;BME280;34607;48.520;-1.330;2022-08-21T12:04:45;100292.69;;;22.10;82.11
48796;BME280;34607;48.520;-1.330;2022-08-21T12:07:14;100304.44;;;22.28;82.81
48796;BME280;34607;48.520;-1.330;2022-08-21T12:09:52;100314.44;;;22.44;82.70
48796;BME280;34607;48.520;-1.330;2022-08-21T12:12:28;100318.09;;;22.40;81.91
48796;BME280;34607;48.520;-1.330;2022-08-21T12:15:26;100311.50;;;21.99;81.95
48796;BME280;34607;48.520;-1.330;2022-08-21T12:17:59;100316.19;;;21.89;83.39
48796;BME280;34607;48.520;-1.330;2022-08-21T12:20:37;100308.03;;;21.68;83.42
48796;BME280;34607;48.520;-1.330;2022-08-21T12:23:15;100317.88;;;21.62;83.98
48796;BME280;34607;48.520;-1.330;2022-08-21T12:25:46;100317.00;;;21.63;85.04
48796;BME280;34607;48.520;-1.330;2022-08-21T12:28:21;100299.22;;;21.69;84.77
48796;BME280;34607;48.520;-1.330;2022-08-21T12:30:49;100308.56;;;21.80;84.21
48796;BME280;34607;48.520;-1.330;2022-08-21T12:33:24;100303.22;;;21.81;84.62
48796;BME280;34607;48.520;-1.330;2022-08-21T12:35:54;100296.00;;;21.88;85.41
48796;BME280;34607;48.520;-1.330;2022-08-21T12:38:31;100294.56;;;21.78;84.91
48796;BME280;34607;48.520;-1.330;2022-08-21T12:41:02;100304.28;;;21.76;84.97
48796;BME280;34607;48.520;-1.330;2022-08-21T12:43:35;100305.47;;;21.65;85.48
48796;BME280;34607;48.520;-1.330;2022-08-21T12:46:04;100291.38;;;21.37;85.34
48796;BME280;34607;48.520;-1.330;2022-08-21T12:48:35;100305.91;;;21.51;85.28
48796;BME280;34607;48.520;-1.330;2022-08-21T12:51:10;100308.66;;;21.45;84.67
48796;BME280;34607;48.520;-1.330;2022-08-21T12:53:43;100290.56;;;21.35;85.27
48796;BME280;34607;48.520;-1.330;2022-08-21T12:56:14;100299.13;;;21.41;85.99